Time;durP1;ratioP1;P1;durP2;ratioP2;P2;SDS_P1;SDS_P2;PMS_P1;PMS_P2;Temp;Humidity;BMP_temperature;BMP_pressure;BME280_temperature;BME280_humidity;BME280_pressure;Samples;Min_cycle;Max_cycle;Signal;HPM_P1;HPM_P2
2022/02/20 00:02:02;;;;;;;24.13;14.45;;;;;;;5.83;100.00;100424.13;5050065;28;20136;-66
2022/02/20 00:04:27;;;;;;;24.75;13.25;;;;;;;5.93;100.00;100468.72;5048689;28;20036;-67
2022/02/20 00:06:52;;;;;;;26.45;16.77;;;;;;;5.93;100.00;100462.00;5050224;28;20043;-67
2022/02/20 00:09:18;;;;;;;31.52;17.42;;;;;;;5.80;100.00;100485.50;5050437;28;20499;-67
2022/02/20 00:11:43;;;;;;;26.50;14.98;;;;;;;5.92;100.00;100431.72;5050415;28;20036;-67
2022/02/20 00:14:09;;;;;;;30.00;17.10;;;;;;;6.32;100.00;100457.72;5050261;28;20055;-67
2022/02/20 00:16:35;;;;;;;24.83;15.18;;;;;;;6.25;100.00;100459.41;5050363;28;20029;-68
2022/02/20 00:19:00;;;;;;;24.83;14.82;;;;;;;6.17;100.00;100419.88;5049911;28;20041;-67
2022/02/20 00:21:26;;;;;;;33.58;17.42;;;;;;;6.27;100.00;100457.72;5050063;28;20541;-66
2022/02/20 00:23:51;;;;;;;69.18;32.58;;;;;;;5.63;100.00;100383.81;5053476;28;20037;-68
2022/02/20 00:26:17;;;;;;;61.42;30.95;;;;;;;5.69;100.00;100400.59;5054110;28;20029;-68
2022/02/20 00:28:42;;;;;;;43.78;24.15;;;;;;;5.61;100.00;100417.44;5054207;28;20032;-68
2022/02/20 00:31:08;;;;;;;28.45;17.67;;;;;;;5.89;100.00;100450.22;5054024;28;20033;-67
2022/02/20 00:33:33;;;;;;;24.10;14.48;;;;;;;6.00;100.00;100452.75;5053926;28;20460;-67
2022/02/20 00:35:59;;;;;;;20.10;11.93;;;;;;;5.46;100.00;100392.25;5053863;28;20029;-66
2022/02/20 00:38:24;;;;;;;20.98;13.15;;;;;;;5.63;100.00;100446.00;5053912;28;20047;-66
2022/02/20 00:40:51;;;;;;;19.83;11.57;;;;;;;5.85;100.00;100445.19;5053619;28;20029;-65
2022/02/20 00:43:18;;;;;;;20.85;10.52;;;;;;;5.64;100.00;100420.81;5052427;28;20065;-66
2022/02/20 00:45:44;;;;;;;17.83;11.30;;;;;;;5.51;100.00;100421.63;5053782;28;20494;-66
2022/02/20 00:48:09;;;;;;;17.38;11.05;;;;;;;5.66;100.00;100451.06;5053829;28;20025;-66
2022/02/20 00:50:35;;;;;;;17.90;11.90;;;;;;;5.96;100.00;100423.31;5053152;28;20025;-65
2022/02/20 00:53:00;;;;;;;20.35;11.45;;;;;;;6.09;100.00;100463.66;5053440;28;20021;-66
2022/02/20 00:55:26;;;;;;;17.13;11.73;;;;;;;6.39;100.00;100470.28;5053768;28;20040;-65
2022/02/20 00:57:53;;;;;;;18.98;12.80;;;;;;;5.58;100.00;100420.81;5053394;28;20415;-65
2022/02/20 01:03:01;;;;;;;18.52;11.50;;;;;;;6.10;100.00;100469.53;4768171;22;10002143;-66
2022/02/20 01:05:26;;;;;;;15.40;9.80;;;;;;;6.32;100.00;100438.31;4994275;28;20039;-66
2022/02/20 01:07:52;;;;;;;19.35;10.35;;;;;;;6.20;100.00;100478.75;4993789;28;20136;-66
2022/02/20 01:10:18;;;;;;;15.48;9.82;;;;;;;6.44;100.00;100443.34;5001158;28;20084;-66
2022/02/20 01:12:44;;;;;;;15.60;10.30;;;;;;;6.04;100.00;100384.56;5012353;28;20040;-65
2022/02/20 01:15:12;;;;;;;17.25;11.00;;;;;;;5.84;100.00;100425.84;5013364;28;20738;-66
2022/02/20 01:17:38;;;;;;;46.00;25.30;;;;;;;6.49;100.00;100446.69;5013466;28;20065;-66
2022/02/20 01:20:04;;;;;;;13.70;8.95;;;;;;;5.81;100.00;100411.53;5013582;28;20123;-65
2022/02/20 01:22:30;;;;;;;17.35;10.30;;;;;;;6.27;100.00;100446.75;5012456;28;20045;-65
2022/02/20 01:24:56;;;;;;;18.20;9.07;;;;;;;5.78;100.00;100443.50;5013489;28;20037;-66
2022/02/20 01:27:22;;;;;;;16.10;9.98;;;;;;;6.24;100.00;100445.09;5013291;28;20034;-66
2022/02/20 01:29:48;;;;;;;16.85;10.10;;;;;;;5.61;100.00;100442.63;5012782;28;20030;-66
2022/02/20 01:32:14;;;;;;;16.67;10.55;;;;;;;6.22;100.00;100440.91;5012052;28;20060;-66
2022/02/20 01:34:39;;;;;;;16.90;10.43;;;;;;;6.21;100.00;100411.44;4999119;28;20061;-66
2022/02/20 01:37:05;;;;;;;25.27;14.02;;;;;;;5.76;100.00;100389.69;4993438;28;20026;-65
2022/02/20 01:39:30;;;;;;;14.88;9.32;;;;;;;5.52;100.00;100334.25;4993274;28;20489;-66
2022/02/20 01:41:56;;;;;;;16.80;10.25;;;;;;;5.55;100.00;100397.25;4993326;28;20034;-65
2022/02/20 01:44:21;;;;;;;15.40;9.80;;;;;;;6.03;100.00;100417.41;4992942;28;20035;-65
2022/02/20 01:46:48;;;;;;;17.08;10.07;;;;;;;5.89;100.00;100406.50;4993423;28;20088;-65
2022/02/20 01:49:16;;;;;;;26.83;15.70;;;;;;;5.58;100.00;100402.31;4993133;28;20038;-65
2022/02/20 01:51:41;;;;;;;17.45;11.82;;;;;;;5.62;100.00;100411.56;4993489;28;20210;-65
2022/02/20 01:54:07;;;;;;;16.63;10.55;;;;;;;5.89;100.00;100411.53;4993217;28;20119;-65
2022/02/20 01:56:33;;;;;;;16.63;9.32;;;;;;;6.09;100.00;100409.81;4993114;28;20073;-65
2022/02/20 01:59:00;;;;;;;16.02;8.98;;;;;;;5.63;100.00;100370.34;4992758;28;20062;-65
2022/02/20 02:01:25;;;;;;;16.88;9.40;;;;;;;6.44;100.00;100405.47;4992803;28;20045;-65
2022/02/20 02:03:50;;;;;;;17.35;9.30;;;;;;;5.79;100.00;100410.69;4993148;28;20046;-65
2022/02/20 02:06:16;;;;;;;15.90;9.27;;;;;;;6.00;100.00;100372.81;4991731;28;20034;-66
2022/02/20 02:08:41;;;;;;;16.33;10.32;;;;;;;6.14;100.00;100386.22;4993172;28;20029;-66
2022/02/20 02:11:08;;;;;;;22.85;13.35;;;;;;;6.41;100.00;100387.81;4991412;28;20034;-65
2022/02/20 02:13:34;;;;;;;26.38;16.52;;;;;;;5.81;100.00;100396.38;4992732;28;20026;-65
2022/02/20 02:15:59;;;;;;;18.65;11.75;;;;;;;5.98;100.00;100379.53;4992570;28;20112;-66
2022/02/20 02:18:25;;;;;;;22.23;12.40;;;;;;;5.72;100.00;100367.84;4991337;28;20026;-64
2022/02/20 02:20:50;;;;;;;18.13;11.55;;;;;;;5.48;100.00;100335.94;4995487;28;20026;-66
2022/02/20 02:23:19;;;;;;;20.83;13.60;;;;;;;5.63;100.00;100370.34;4994268;28;20034;-65
2022/02/20 02:25:48;;;;;;;20.58;13.18;;;;;;;5.53;100.00;100333.38;4992430;28;20483;-65
2022/02/20 02:28:13;;;;;;;15.70;11.07;;;;;;;5.40;100.00;100374.59;4992461;28;20034;-65
2022/02/20 02:30:39;;;;;;;17.25;11.15;;;;;;;5.09;100.00;100315.84;4992706;28;20033;-66
2022/02/20 02:33:04;;;;;;;17.05;10.60;;;;;;;5.56;100.00;100344.34;4991103;28;20065;-65
2022/02/20 02:35:30;;;;;;;20.23;12.02;;;;;;;5.09;100.00;100346.88;4992525;28;20551;-66
2022/02/20 02:37:56;;;;;;;18.45;11.05;;;;;;;5.38;100.00;100374.59;4992338;28;20030;-65
2022/02/20 02:40:21;;;;;;;18.55;9.82;;;;;;;5.36;100.00;100337.63;4992308;28;20074;-65
2022/02/20 02:42:48;;;;;;;18.95;11.82;;;;;;;5.25;100.00;100295.63;4992180;28;20072;-65
2022/02/20 02:45:13;;;;;;;18.10;11.35;;;;;;;5.43;100.00;100331.75;4990160;28;20027;-65
2022/02/20 02:47:39;;;;;;;19.73;10.55;;;;;;;4.85;100.00;100348.56;4992391;28;20241;-65
2022/02/20 02:50:05;;;;;;;13.88;9.13;;;;;;;4.98;100.00;100363.69;4992227;28;20488;-65
2022/02/20 02:52:30;;;;;;;15.82;9.60;;;;;;;5.24;100.00;100343.53;4992073;28;20037;-65
2022/02/20 02:54:56;;;;;;;17.40;9.55;;;;;;;5.18;100.00;100366.22;4992300;28;20037;-64
2022/02/20 02:57:21;;;;;;;18.48;10.45;;;;;;;5.27;100.00;100336.78;4992247;28;20034;-65
2022/02/20 02:59:46;;;;;;;16.15;9.52;;;;;;;5.35;100.00;100382.16;4991997;28;20031;-65
2022/02/20 03:02:12;;;;;;;16.50;9.32;;;;;;;5.22;100.00;100386.38;5002151;28;20053;-65
2022/02/20 03:04:38;;;;;;;16.83;8.95;;;;;;;5.50;100.00;100387.19;5011571;28;20080;-65
2022/02/20 03:07:03;;;;;;;14.07;9.20;;;;;;;4.99;100.00;100364.53;5011490;28;20029;-65
2022/02/20 03:09:29;;;;;;;14.68;8.70;;;;;;;5.63;100.00;100393.03;5011456;28;20030;-65
2022/02/20 03:11:55;;;;;;;13.45;8.48;;;;;;;5.60;100.00;100365.34;5011485;28;20026;-66
2022/02/20 03:14:20;;;;;;;15.45;8.25;;;;;;;5.73;100.00;100390.53;5011319;28;20057;-66
2022/02/20 03:16:46;;;;;;;14.90;9.65;;;;;;;5.44;100.00;100353.59;5011585;28;20072;-65
2022/02/20 03:19:11;;;;;;;15.25;9.52;;;;;;;5.90;100.00;100370.34;5011345;28;20419;-65
2022/02/20 03:21:37;;;;;;;12.23;8.85;;;;;;;6.23;100.00;100397.13;5011192;28;20091;-65
2022/02/20 03:24:04;;;;;;;30.48;15.63;;;;;;;6.03;100.00;100403.09;5011204;28;20091;-65
2022/02/20 03:26:29;;;;;;;46.05;24.95;;;;;;;5.67;100.00;100374.56;5010957;28;20053;-65
2022/02/20 03:28:55;;;;;;;20.20;11.90;;;;;;;5.36;100.00;100401.50;5011304;28;20113;-66
2022/02/20 03:31:20;;;;;;;17.50;9.18;;;;;;;5.90;100.00;100386.28;5009485;28;20026;-66
2022/02/20 03:33:46;;;;;;;13.35;8.95;;;;;;;5.89;100.00;100364.44;5011253;28;20040;-66
2022/02/20 03:36:11;;;;;;;15.38;8.63;;;;;;;5.54;100.00;100307.34;5011002;28;20041;-65
2022/02/20 03:38:37;;;;;;;13.88;9.40;;;;;;;5.48;100.00;100335.09;5010910;28;20041;-65
2022/02/20 03:41:03;;;;;;;16.88;9.40;;;;;;;4.96;100.00;100297.34;5010750;28;20038;-65
2022/02/20 03:43:28;;;;;;;14.85;9.55;;;;;;;5.27;100.00;100326.72;5011224;28;20026;-65
2022/02/20 03:45:54;;;;;;;17.73;10.00;;;;;;;5.26;100.00;100332.63;5010303;28;20483;-65
2022/02/20 03:48:20;;;;;;;23.80;12.13;;;;;;;5.45;100.00;100345.19;5010842;28;20026;-66
2022/02/20 03:50:46;;;;;;;23.35;12.45;;;;;;;5.83;100.00;100376.19;5010877;28;20260;-65
2022/02/20 03:53:11;;;;;;;22.77;12.95;;;;;;;5.64;100.00;100309.00;5010634;28;20038;-65
2022/02/20 03:55:37;;;;;;;25.95;14.73;;;;;;;5.24;100.00;100329.25;5010530;28;20022;-65
2022/02/20 03:58:02;;;;;;;21.75;12.40;;;;;;;5.88;100.00;100366.97;5010709;28;20053;-65
2022/02/20 04:00:28;;;;;;;15.82;10.18;;;;;;;5.86;100.00;100353.53;5009115;28;20034;-65
2022/02/20 04:02:54;;;;;;;22.30;11.70;;;;;;;5.94;100.00;100389.69;5009796;28;20054;-66
2022/02/20 04:05:20;;;;;;;18.05;11.48;;;;;;;5.65;100.00;100373.72;5010721;28;20392;-65
2022/02/20 04:07:46;;;;;;;18.75;10.93;;;;;;;5.55;100.00;100357.75;5011020;28;20025;-66
2022/02/20 04:10:12;;;;;;;18.05;11.10;;;;;;;5.38;100.00;100354.44;5010592;28;20069;-65
2022/02/20 04:12:38;;;;;;;17.58;10.82;;;;;;;5.50;100.00;100320.81;5010673;28;20128;-66
2022/02/20 04:15:08;;;;;;;18.80;12.25;;;;;;;6.15;100.00;100387.06;5010847;28;20180;-66
2022/02/20 04:17:47;;;;;;;17.92;12.43;;;;;;;5.49;100.00;100361.97;5010691;28;20038;-65
2022/02/20 04:20:15;;;;;;;19.08;11.10;;;;;;;5.20;100.00;100355.28;5010601;28;20034;-66
2022/02/20 04:22:42;;;;;;;14.80;9.40;;;;;;;5.41;100.00;100356.13;5010288;28;20117;-66
2022/02/20 04:25:09;;;;;;;14.05;9.18;;;;;;;5.04;100.00;100371.25;5010939;28;20117;-65
2022/02/20 04:27:35;;;;;;;27.50;14.02;;;;;;;4.75;100.00;100332.63;5009253;28;20077;-65
2022/02/20 04:30:00;;;;;;;25.80;14.35;;;;;;;5.08;100.00;100331.78;5010608;28;20061;-66
2022/02/20 04:32:26;;;;;;;45.30;23.25;;;;;;;5.31;100.00;100372.09;5009433;28;20045;-66
2022/02/20 04:34:51;;;;;;;28.52;16.02;;;;;;;5.43;100.00;100369.56;5010199;28;20117;-66
2022/02/20 04:37:17;;;;;;;19.55;10.73;;;;;;;5.16;100.00;100363.69;5010225;28;20025;-65
2022/02/20 04:39:42;;;;;;;15.90;10.45;;;;;;;4.99;100.00;100365.34;5009119;28;20030;-66
2022/02/20 04:42:07;;;;;;;15.05;11.20;;;;;;;5.13;100.00;100363.69;5010170;28;20463;-66
2022/02/20 04:44:33;;;;;;;19.33;11.23;;;;;;;5.06;100.00;100362.00;5010673;28;20040;-65
2022/02/20 04:46:58;;;;;;;19.45;10.63;;;;;;;5.23;100.00;100342.69;5010924;28;20030;-66
2022/02/20 04:49:24;;;;;;;16.58;11.40;;;;;;;5.39;100.00;100335.13;5010028;28;20422;-66
2022/02/20 04:51:49;;;;;;;14.80;10.38;;;;;;;5.23;100.00;100314.97;5010005;28;20034;-65
2022/02/20 04:54:15;;;;;;;17.40;11.68;;;;;;;5.22;100.00;100373.78;5010241;28;20026;-66
2022/02/20 04:56:42;;;;;;;18.35;11.60;;;;;;;5.79;100.00;100377.03;5010202;28;20041;-65
2022/02/20 04:59:12;;;;;;;41.92;24.83;;;;;;;5.36;100.00;100345.19;5010322;28;20205;-65
2022/02/20 05:01:38;;;;;;;23.73;14.40;;;;;;;5.23;100.00;100320.00;5009963;28;20041;-66
2022/02/20 05:04:04;;;;;;;25.00;15.13;;;;;;;5.99;100.00;100381.25;5009816;28;20030;-66
2022/02/20 05:06:30;;;;;;;28.38;15.90;;;;;;;5.51;100.00;100352.72;5010196;28;20030;-65
2022/02/20 05:08:56;;;;;;;25.58;16.23;;;;;;;5.34;100.00;100334.28;5011366;28;20026;-65
2022/02/20 05:11:24;;;;;;;23.95;15.95;;;;;;;5.62;100.00;100328.34;5013417;28;20139;-66
2022/02/20 05:13:50;;;;;;;27.20;18.30;;;;;;;5.52;100.00;100316.59;5013357;28;20022;-65
2022/02/20 05:16:16;;;;;;;28.83;19.80;;;;;;;5.84;100.00;100367.84;5013506;28;20040;-65
2022/02/20 05:18:41;;;;;;;32.10;22.52;;;;;;;5.47;100.00;100358.66;5013320;28;20044;-65
2022/02/20 05:21:07;;;;;;;34.42;24.10;;;;;;;5.53;100.00;100344.31;5013032;28;20550;-64
2022/02/20 05:23:33;;;;;;;34.80;23.70;;;;;;;5.48;100.00;100294.75;5013351;28;20113;-65
2022/02/20 05:26:01;;;;;;;35.35;25.42;;;;;;;5.53;100.00;100351.88;5013231;28;20101;-66
2022/02/20 05:28:26;;;;;;;32.38;21.02;;;;;;;5.91;100.00;100347.63;5013183;28;20026;-66
2022/02/20 05:30:52;;;;;;;45.25;27.63;;;;;;;5.68;100.00;100333.38;5013165;28;20112;-66
2022/02/20 05:33:17;;;;;;;49.45;30.20;;;;;;;5.60;100.00;100319.94;5012967;28;20030;-66
2022/02/20 05:35:43;;;;;;;59.45;37.10;;;;;;;5.92;100.00;100328.28;5013247;28;20088;-66
2022/02/20 05:38:08;;;;;;;71.65;45.60;;;;;;;6.21;100.00;100363.50;5013239;28;20034;-65
2022/02/20 05:40:34;;;;;;;76.95;45.60;;;;;;;5.46;100.00;100362.00;5013195;28;20088;-66
2022/02/20 05:42:59;;;;;;;60.83;40.17;;;;;;;5.42;100.00;100358.63;5013261;28;20034;-66
2022/02/20 05:45:25;;;;;;;33.47;21.75;;;;;;;5.88;100.00;100392.22;5013209;28;20476;-66
2022/02/20 05:47:51;;;;;;;39.88;26.75;;;;;;;5.37;100.00;100326.72;5012749;28;20583;-65
2022/02/20 05:50:16;;;;;;;32.30;20.98;;;;;;;5.33;100.00;100366.19;5011272;28;20033;-65
2022/02/20 05:52:42;;;;;;;27.00;17.13;;;;;;;5.45;100.00;100371.22;5012967;28;20456;-65
2022/02/20 05:55:09;;;;;;;41.97;22.15;;;;;;;5.50;100.00;100394.75;5012896;28;20480;-66
2022/02/20 05:57:52;;;;;;;41.80;23.35;;;;;;;5.22;100.00;100363.69;5013036;28;20113;-67
2022/02/20 06:00:20;;;;;;;47.22;29.60;;;;;;;5.21;100.00;100351.91;5012508;28;20480;-66
2022/02/20 06:02:46;;;;;;;32.05;17.80;;;;;;;5.36;100.00;100365.34;5012385;28;20176;-65
2022/02/20 06:05:12;;;;;;;32.97;17.90;;;;;;;5.03;100.00;100316.66;5012840;28;20061;-65
2022/02/20 06:07:40;;;;;;;25.40;16.75;;;;;;;4.99;100.00;100356.97;5012814;28;20030;-65
2022/02/20 06:10:07;;;;;;;175.93;154.07;;;;;;;5.29;100.00;100412.41;5012656;28;20044;-67
2022/02/20 06:12:34;;;;;;;48.53;35.35;;;;;;;4.67;100.00;100363.66;5012845;28;20485;-67
2022/02/20 06:14:59;;;;;;;30.60;18.95;;;;;;;5.20;100.00;100385.53;5010974;28;20556;-65
2022/02/20 06:17:26;;;;;;;32.28;18.73;;;;;;;5.33;100.00;100386.34;5010802;28;20113;-68
2022/02/20 06:19:52;;;;;;;30.15;18.90;;;;;;;5.16;100.00;100370.41;5012455;28;20040;-67
2022/02/20 06:22:17;;;;;;;37.47;22.33;;;;;;;5.32;100.00;100376.28;5006062;28;20030;-65
2022/02/20 06:24:43;;;;;;;53.70;32.90;;;;;;;5.34;100.00;100354.44;4992296;28;20480;-65
2022/02/20 06:27:08;;;;;;;67.20;41.08;;;;;;;5.02;100.00;100370.41;4992762;28;20045;-66
2022/02/20 06:29:34;;;;;;;88.32;59.65;;;;;;;5.10;100.00;100383.00;4992143;28;20117;-65
2022/02/20 06:32:00;;;;;;;82.18;57.40;;;;;;;5.30;100.00;100401.50;4992192;28;20030;-65
2022/02/20 06:34:26;;;;;;;84.55;60.42;;;;;;;5.34;100.00;100473.75;4992140;28;20426;-66
2022/02/20 06:36:51;;;;;;;83.68;59.05;;;;;;;5.64;100.00;100491.41;4991994;28;20034;-65
2022/02/20 06:39:17;;;;;;;69.28;48.42;;;;;;;5.40;100.00;100477.94;4991153;28;20030;-65
2022/02/20 06:41:43;;;;;;;63.92;45.70;;;;;;;5.30;100.00;100406.53;4992188;28;20038;-65
2022/02/20 06:44:08;;;;;;;54.00;39.13;;;;;;;5.67;100.00;100461.13;4992179;28;20081;-66
2022/02/20 06:46:35;;;;;;;61.92;46.90;;;;;;;5.91;100.00;100466.19;4991778;28;20061;-65
2022/02/20 06:49:01;;;;;;;51.08;37.28;;;;;;;5.89;100.00;100459.47;4992074;28;20121;-65
2022/02/20 06:51:28;;;;;;;48.35;34.20;;;;;;;5.95;100.00;100424.13;4991770;28;20109;-67
2022/02/20 06:53:53;;;;;;;88.07;70.20;;;;;;;5.93;100.00;100391.34;4992224;28;20030;-65
2022/02/20 06:56:18;;;;;;;44.15;30.55;;;;;;;6.10;100.00;100401.41;4990817;28;20049;-66
2022/02/20 06:58:44;;;;;;;45.25;29.30;;;;;;;6.27;100.00;100408.91;4991781;28;20412;-65
2022/02/20 07:01:10;;;;;;;40.92;27.40;;;;;;;6.54;100.00;100389.41;4991606;28;20412;-65
2022/02/20 07:03:35;;;;;;;52.03;34.28;;;;;;;6.75;100.00;100421.31;4991901;28;20050;-65
2022/02/20 07:06:00;;;;;;;53.08;36.72;;;;;;;6.18;100.00;100396.31;4991480;28;20066;-65
2022/02/20 07:08:26;;;;;;;56.63;37.83;;;;;;;6.22;100.00;100387.91;4991817;28;20557;-66
2022/02/20 07:10:51;;;;;;;53.13;34.53;;;;;;;6.43;100.00;100418.09;4991485;28;20060;-65
2022/02/20 07:13:17;;;;;;;50.33;33.75;;;;;;;6.46;100.00;100392.81;4991670;28;20113;-64
2022/02/20 07:15:42;;;;;;;52.40;36.13;;;;;;;6.52;100.00;100429.00;4991550;28;20030;-64
2022/02/20 07:18:08;;;;;;;62.90;42.13;;;;;;;6.51;100.00;100403.75;4991718;28;20031;-65
2022/02/20 07:20:33;;;;;;;56.47;38.20;;;;;;;6.57;100.00;100429.81;4991599;28;20035;-66
2022/02/20 07:22:59;;;;;;;52.95;36.22;;;;;;;6.46;100.00;100410.50;4990966;28;20539;-66
2022/02/20 07:25:25;;;;;;;41.60;26.10;;;;;;;6.73;100.00;100439.00;4991266;28;20026;-65
2022/02/20 07:27:53;;;;;;;40.50;24.90;;;;;;;6.70;100.00;100433.97;4990103;28;20042;-65
2022/02/20 07:30:20;;;;;;;49.58;28.70;;;;;;;6.62;100.00;100440.72;4991359;28;20038;-65
2022/02/20 07:32:45;;;;;;;32.05;21.67;;;;;;;6.38;100.00;100429.91;4990886;28;20022;-65
2022/02/20 07:35:11;;;;;;;60.85;41.72;;;;;;;6.54;100.00;100396.16;4991175;28;20026;-64
2022/02/20 07:37:36;;;;;;;46.70;31.70;;;;;;;6.36;100.00;100369.31;4991170;28;20421;-64
2022/02/20 07:40:03;;;;;;;41.58;28.38;;;;;;;6.60;100.00;100434.84;4991049;28;20035;-65
2022/02/20 07:42:28;;;;;;;41.25;27.15;;;;;;;6.56;100.00;100364.16;4990679;28;20030;-65
2022/02/20 07:44:54;;;;;;;38.88;27.52;;;;;;;6.85;100.00;100423.75;4990468;28;20088;-64
2022/02/20 07:47:20;;;;;;;36.95;23.42;;;;;;;6.55;100.00;100385.22;4991321;28;20037;-63
2022/02/20 07:49:46;;;;;;;33.38;22.05;;;;;;;6.76;100.00;100403.63;4989794;28;20026;-64
2022/02/20 07:52:11;;;;;;;33.58;21.35;;;;;;;7.01;100.00;100382.38;4989617;28;20030;-64
2022/02/20 07:54:37;;;;;;;36.58;23.45;;;;;;;6.79;100.00;100344.66;4990752;28;20477;-64
2022/02/20 07:57:03;;;;;;;41.08;26.60;;;;;;;7.12;100.00;100367.16;4989454;28;20026;-64
2022/02/20 07:59:28;;;;;;;36.15;26.33;;;;;;;7.31;100.00;100342.56;4990414;28;20030;-63
2022/02/20 08:01:54;;;;;;;39.88;28.27;;;;;;;7.25;100.00;100375.47;4990495;28;20051;-64
2022/02/20 08:04:19;;;;;;;44.70;30.63;;;;;;;7.21;100.00;100401.63;4990456;28;20120;-64
2022/02/20 08:06:45;;;;;;;50.55;33.05;;;;;;;7.25;100.00;100345.13;4991159;28;20176;-64
2022/02/20 08:09:11;;;;;;;58.17;36.40;;;;;;;7.45;100.00;100379.50;4990964;28;20038;-63
2022/02/20 08:11:37;;;;;;;50.70;34.83;;;;;;;7.64;100.00;100353.19;4990637;28;20034;-63
2022/02/20 08:14:02;;;;;;;48.78;32.75;;;;;;;7.61;100.00;100386.09;4979358;28;20023;-64
2022/02/20 08:16:28;;;;;;;45.38;30.73;;;;;;;7.62;100.00;100371.75;4981717;28;20042;-64
2022/02/20 08:18:54;;;;;;;47.97;34.53;;;;;;;7.61;100.00;100342.25;4980732;28;20033;-64
2022/02/20 08:21:20;;;;;;;60.50;36.03;;;;;;;7.56;100.00;100347.38;4980043;28;20425;-64
2022/02/20 08:23:45;;;;;;;44.42;28.75;;;;;;;7.76;100.00;100367.41;4983709;28;20084;-64
2022/02/20 08:26:11;;;;;;;35.25;24.95;;;;;;;7.64;100.00;100329.56;4990783;28;20031;-64
2022/02/20 08:28:37;;;;;;;28.52;18.63;;;;;;;7.98;100.00;100353.66;4990719;28;20041;-64
2022/02/20 08:31:02;;;;;;;23.15;15.35;;;;;;;7.99;100.00;100380.66;4990941;28;20797;-65
2022/02/20 08:33:28;;;;;;;24.63;15.27;;;;;;;8.20;100.00;100366.91;4990931;28;20030;-65
2022/02/20 08:35:53;;;;;;;28.90;18.25;;;;;;;8.19;100.00;100344.97;4991127;28;20058;-64
2022/02/20 08:38:22;;;;;;;26.58;18.48;;;;;;;8.35;100.00;100371.81;4991039;28;20026;-65
2022/02/20 08:40:49;;;;;;;26.23;17.10;;;;;;;8.68;100.00;100358.69;4990811;28;20117;-65
2022/02/20 08:43:15;;;;;;;17.10;12.57;;;;;;;8.39;100.00;100313.50;4991064;28;20030;-65
2022/02/20 08:45:40;;;;;;;27.83;11.80;;;;;;;8.72;100.00;100345.94;4994754;28;20034;-66
2022/02/20 08:48:05;;;;;;;30.42;15.65;;;;;;;8.85;100.00;100353.38;4994395;28;20034;-64
2022/02/20 08:50:31;;;;;;;25.83;14.65;;;;;;;8.89;100.00;100352.47;4994707;28;20480;-64
2022/02/20 08:52:57;;;;;;;23.30;12.55;;;;;;;8.71;100.00;100344.25;4993198;28;20031;-64
2022/02/20 08:55:23;;;;;;;20.85;12.70;;;;;;;9.15;100.00;100355.44;4994319;28;20035;-65
2022/02/20 08:57:49;;;;;;;18.75;12.52;;;;;;;9.22;100.00;100341.78;4994560;28;20030;-64
2022/02/20 09:00:15;;;;;;;22.70;14.73;;;;;;;9.31;100.00;100351.78;4646203;28;10000126;-66
2022/02/20 09:02:41;;;;;;;21.55;13.85;;;;;;;9.40;100.00;100323.72;4987439;28;20697;-64
2022/02/20 09:05:07;;;;;;;24.98;15.75;;;;;;;9.32;100.00;100312.88;4989844;28;20554;-65
2022/02/20 09:07:33;;;;;;;42.33;22.60;;;;;;;9.72;100.00;100331.59;4990905;28;20026;-66
2022/02/20 09:09:58;;;;;;;21.52;10.95;;;;;;;9.37;100.00;100328.81;4990502;28;20044;-65
2022/02/20 09:12:24;;;;;;;31.00;15.68;;;;;;;9.83;100.00;100283.13;4990125;28;20026;-65
2022/02/20 09:14:49;;;;;;;22.13;12.13;;;;;;;10.04;100.00;100361.44;4989134;28;20119;-66
2022/02/20 09:17:15;;;;;;;33.97;19.05;;;;;;;10.14;100.00;100357.88;4988969;28;20477;-66
2022/02/20 09:19:40;;;;;;;33.42;18.98;;;;;;;9.97;100.00;100357.31;4990460;28;20484;-66
2022/02/20 09:22:06;;;;;;;68.47;30.30;;;;;;;10.43;100.00;100345.41;4990204;28;20038;-66
2022/02/20 09:24:32;;;;;;;25.42;15.73;;;;;;;9.94;100.00;100343.00;4989788;28;20037;-66
2022/02/20 09:26:57;;;;;;;25.88;15.07;;;;;;;10.37;100.00;100337.91;4990154;28;20045;-65
2022/02/20 09:29:23;;;;;;;43.05;21.58;;;;;;;10.91;100.00;100288.34;4990901;28;20428;-65
2022/02/20 09:31:48;;;;;;;19.48;11.15;;;;;;;10.79;100.00;100281.00;4989229;28;20736;-67
2022/02/20 09:34:13;;;;;;;15.95;9.05;;;;;;;11.25;100.00;100284.06;4990419;28;20053;-66
2022/02/20 09:36:39;;;;;;;16.15;9.32;;;;;;;11.39;100.00;100287.97;4989610;28;20439;-66
2022/02/20 09:39:05;;;;;;;20.05;10.90;;;;;;;11.04;100.00;100282.06;4989723;28;20034;-66
2022/02/20 09:41:31;;;;;;;15.20;9.38;;;;;;;10.82;100.00;100252.94;4989705;28;20524;-65
2022/02/20 09:43:58;;;;;;;15.40;9.50;;;;;;;11.54;100.00;100285.84;4989410;28;20033;-66
2022/02/20 09:46:25;;;;;;;15.30;10.00;;;;;;;11.65;100.00;100232.06;4988547;28;20436;-67
2022/02/20 09:48:55;;;;;;;20.77;11.00;;;;;;;11.56;100.00;100296.00;4988139;28;20512;-66
2022/02/20 09:51:21;;;;;;;59.33;22.65;;;;;;;11.93;100.00;100289.88;4989854;28;20045;-66
2022/02/20 09:53:47;;;;;;;13.85;9.20;;;;;;;11.24;100.00;100305.31;4989595;28;20463;-66
2022/02/20 09:56:13;;;;;;;15.52;8.27;;;;;;;12.04;100.00;100262.34;4989281;28;20137;-66
2022/02/20 09:58:39;;;;;;;24.02;10.95;;;;;;;12.18;100.00;100255.13;4989545;28;20419;-66
2022/02/20 10:01:05;;;;;;;14.95;7.35;;;;;;;11.66;100.00;100287.25;5001134;28;20034;-66
2022/02/20 10:03:33;;;;;;;12.57;7.10;;;;;;;11.74;100.00;100275.16;5009441;28;20048;-67
2022/02/20 10:06:00;;;;;;;11.40;7.13;;;;;;;11.67;100.00;100274.47;5024073;28;20105;-68
2022/02/20 10:08:34;;;;;;;13.27;7.47;;;;;;;13.09;100.00;100271.84;4998538;28;20124;-67
2022/02/20 10:11:20;;;;;;;18.00;10.60;;;;;;;12.73;100.00;100273.84;4990412;28;20038;-66
2022/02/20 10:13:48;;;;;;;18.13;9.73;;;;;;;11.52;100.00;100236.69;4992956;28;20629;-66
2022/02/20 10:16:16;;;;;;;14.95;8.13;;;;;;;11.92;100.00;100282.28;4992533;28;20497;-67
2022/02/20 10:18:45;;;;;;;19.75;11.93;;;;;;;12.73;100.00;100278.94;4993033;28;20038;-67
2022/02/20 10:21:15;;;;;;;22.52;10.32;;;;;;;11.93;100.00;100282.22;4989968;28;20431;-66
2022/02/20 10:23:40;;;;;;;31.60;13.43;;;;;;;12.53;100.00;100278.72;4991175;28;20033;-66
2022/02/20 10:26:12;;;;;;;27.95;13.18;;;;;;;12.15;100.00;100231.47;5007713;28;20038;-66
2022/02/20 10:28:58;;;;;;;18.80;10.38;;;;;;;12.41;100.00;100215.38;4992729;28;20034;-66
2022/02/20 10:31:50;;;;;;;12.63;7.47;;;;;;;12.63;100.00;100242.69;4992579;28;20050;-66
2022/02/20 10:34:17;;;;;;;;;;;;;;;13.46;100.00;100239.88;4991684;28;20034;-66
2022/02/20 10:37:08;;;;;;;20.63;11.32;;;;;;;14.14;100.00;100234.78;4992355;28;19957;-66
2022/02/20 10:39:36;;;;;;;15.70;10.40;;;;;;;13.39;100.00;100212.88;4988607;28;20046;-66
2022/02/20 10:42:24;;;;;;;15.95;9.27;;;;;;;14.12;100.00;100230.63;4990480;28;20035;-66
2022/02/20 10:45:00;;;;;;;14.75;9.07;;;;;;;14.02;100.00;100229.31;4992061;28;20088;-66
2022/02/20 10:47:27;;;;;;;61.88;20.05;;;;;;;14.93;94.30;100223.94;4990967;28;20034;-65
2022/02/20 10:49:53;;;;;;;19.48;9.30;;;;;;;15.16;92.10;100168.28;4992566;28;20045;-68
2022/02/20 10:52:23;;;;;;;19.75;10.88;;;;;;;14.76;90.46;100204.16;4992503;28;20385;-66
2022/02/20 10:55:04;;;;;;;20.17;9.38;;;;;;;15.21;87.53;100181.72;4990906;28;20034;-66
2022/02/20 10:57:34;;;;;;;22.60;11.25;;;;;;;14.99;89.49;100172.47;4992349;28;20031;-67
2022/02/20 11:00:17;;;;;;;22.10;11.43;;;;;;;14.78;88.37;100198.09;4991999;28;20057;-66
2022/02/20 11:02:44;;;;;;;21.30;11.18;;;;;;;15.60;81.71;100181.72;4991266;28;20065;-67
2022/02/20 11:05:14;;;;;;;20.98;12.70;;;;;;;15.58;81.75;100211.72;4991514;28;20113;-67
2022/02/20 11:07:40;;;;;;;18.20;11.02;;;;;;;15.47;80.51;100214.75;4991276;28;20419;-66
2022/02/20 11:10:08;;;;;;;29.88;14.90;;;;;;;15.28;82.00;100177.16;4992045;28;20046;-67